createdAt,value
2019-03-12T00:02:15.604Z,36.68
2019-03-12T00:04:42.227Z,32.13
2019-03-12T00:07:08.966Z,27.85
2019-03-12T00:09:35.605Z,28.12
2019-03-12T00:12:02.249Z,27.98
2019-03-12T00:14:30.106Z,15.18
2019-03-12T00:16:56.741Z,17.87
2019-03-12T00:19:23.468Z,20.65
2019-03-12T00:21:50.149Z,20.12
2019-03-12T00:24:16.967Z,18.98
2019-03-12T00:26:43.709Z,19.37
2019-03-12T00:29:10.451Z,23.77
2019-03-12T00:31:37.187Z,22.85
2019-03-12T00:34:04.129Z,29.48
2019-03-12T00:36:30.972Z,29.37
2019-03-12T00:38:57.603Z,29.77
2019-03-12T00:41:24.342Z,29.32
2019-03-12T00:43:51.088Z,30.43
2019-03-12T00:46:17.819Z,35.78
2019-03-12T00:48:44.607Z,29.85
2019-03-12T00:51:11.509Z,31.45
2019-03-12T00:53:38.250Z,26.97
2019-03-12T00:56:04.986Z,27.02
2019-03-12T00:58:31.672Z,31.00
2019-03-12T01:00:58.362Z,23.38
2019-03-12T01:03:25.101Z,25.35
2019-03-12T01:05:51.795Z,25.20
2019-03-12T01:08:18.580Z,28.05
2019-03-12T01:10:45.527Z,29.92
2019-03-12T01:13:14.104Z,29.45
2019-03-12T01:15:40.841Z,26.75
2019-03-12T01:18:07.596Z,28.25
2019-03-12T01:20:34.330Z,26.50
2019-03-12T01:23:01.069Z,28.87
2019-03-12T01:25:27.807Z,31.85
2019-03-12T01:27:54.484Z,30.45
2019-03-12T01:30:22.305Z,28.62
2019-03-12T01:32:49.143Z,30.97
2019-03-12T01:35:15.991Z,33.08
2019-03-12T01:37:42.625Z,31.02
2019-03-12T01:40:11.521Z,29.42
2019-03-12T01:42:39.276Z,31.23
2019-03-12T01:45:08.827Z,30.55
2019-03-12T01:47:35.526Z,33.53
2019-03-12T01:50:04.308Z,29.23
2019-03-12T01:52:31.058Z,31.12
2019-03-12T01:54:57.795Z,27.98
2019-03-12T01:57:24.527Z,29.45
2019-03-12T01:59:51.273Z,28.47
2019-03-12T02:02:18.002Z,31.82
2019-03-12T02:04:44.725Z,33.20
2019-03-12T02:07:11.594Z,31.95
2019-03-12T02:09:38.340Z,33.73
2019-03-12T02:12:05.074Z,35.55
2019-03-12T02:14:31.702Z,32.40
2019-03-12T02:16:58.657Z,29.23
2019-03-12T02:19:25.589Z,33.25
2019-03-12T02:21:52.379Z,33.08
2019-03-12T02:24:19.264Z,33.60
2019-03-12T02:26:46.322Z,31.93
2019-03-12T02:29:12.964Z,31.62
2019-03-12T02:31:39.704Z,31.75
2019-03-12T02:34:06.437Z,32.48
2019-03-12T02:36:34.211Z,28.00
2019-03-12T02:39:02.483Z,30.48
2019-03-12T02:41:31.060Z,33.18
2019-03-12T02:43:57.799Z,31.60
2019-03-12T02:46:24.538Z,33.28
2019-03-12T02:48:51.276Z,36.83
2019-03-12T02:51:17.998Z,36.42
2019-03-12T02:53:44.752Z,34.92
2019-03-12T02:56:11.451Z,35.90
2019-03-12T02:58:38.098Z,36.23
2019-03-12T03:01:04.775Z,36.28
2019-03-12T03:03:31.610Z,35.68
2019-03-12T03:06:00.098Z,33.95
2019-03-12T03:08:28.579Z,35.48
2019-03-12T03:10:55.418Z,35.92
2019-03-12T03:13:22.151Z,34.20
2019-03-12T03:15:48.901Z,32.55
2019-03-12T03:18:16.562Z,38.78
2019-03-12T03:20:43.199Z,36.25
2019-03-12T03:23:10.051Z,37.67
2019-03-12T03:25:36.779Z,35.20
2019-03-12T03:28:03.757Z,39.18
2019-03-12T03:30:30.684Z,39.42
2019-03-12T03:32:57.538Z,38.38
2019-03-12T03:35:24.211Z,37.88
2019-03-12T03:37:51.081Z,37.85
2019-03-12T03:40:20.693Z,37.80
2019-03-12T03:42:47.734Z,34.40
2019-03-12T03:45:15.095Z,37.13
2019-03-12T03:47:42.145Z,39.00
2019-03-12T03:50:11.276Z,41.98
2019-03-12T03:52:38.071Z,42.48
2019-03-12T03:55:08.344Z,39.45
2019-03-12T03:57:35.140Z,47.80
2019-03-12T04:00:03.008Z,52.75
2019-03-12T04:02:31.540Z,43.92
2019-03-12T04:04:58.242Z,40.50
2019-03-12T04:07:24.956Z,47.70
2019-03-12T04:09:51.707Z,43.45
2019-03-12T04:12:18.370Z,49.55
2019-03-12T04:14:45.175Z,49.00
2019-03-12T04:17:11.912Z,46.58
2019-03-12T04:19:38.773Z,45.63
2019-03-12T04:22:05.506Z,48.63
2019-03-12T04:24:32.236Z,43.92
2019-03-12T04:26:58.874Z,46.30
2019-03-12T04:29:25.665Z,46.75
2019-03-12T04:31:52.451Z,41.83
2019-03-12T04:34:19.301Z,37.48
2019-03-12T04:36:46.046Z,26.42
2019-03-12T04:39:12.877Z,26.77
2019-03-12T04:41:39.572Z,28.50
2019-03-12T04:44:06.354Z,27.90
2019-03-12T04:46:33.094Z,29.98
2019-03-12T04:48:59.840Z,28.27
2019-03-12T04:51:26.473Z,31.80
2019-03-12T04:53:53.210Z,27.65
2019-03-12T04:56:19.834Z,23.65
2019-03-12T04:58:46.493Z,31.27
2019-03-12T05:01:13.235Z,25.02
2019-03-12T05:03:39.860Z,27.95
2019-03-12T05:06:06.498Z,26.15
2019-03-12T05:08:33.237Z,24.35
2019-03-12T05:10:59.874Z,25.27
2019-03-12T05:13:26.615Z,27.95
2019-03-12T05:15:54.384Z,30.17
2019-03-12T05:18:21.433Z,26.75
2019-03-12T05:20:48.162Z,24.92
2019-03-12T05:23:14.903Z,25.97
2019-03-12T05:25:41.548Z,25.60
2019-03-12T05:28:08.287Z,25.17
2019-03-12T05:30:35.028Z,24.32
2019-03-12T05:33:01.774Z,24.60
2019-03-12T05:35:28.495Z,26.07
2019-03-12T05:37:55.243Z,23.22
2019-03-12T05:40:21.876Z,19.48
2019-03-12T05:42:48.569Z,21.55
2019-03-12T05:45:18.846Z,21.87
2019-03-12T05:47:45.571Z,25.05
2019-03-12T05:50:13.439Z,24.25
2019-03-12T05:52:40.114Z,22.40
2019-03-12T05:55:08.258Z,20.82
2019-03-12T05:57:34.975Z,20.97
2019-03-12T06:00:01.840Z,19.92
2019-03-12T06:02:28.570Z,19.57
2019-03-12T06:04:55.323Z,26.82
2019-03-12T06:07:22.050Z,22.00
2019-03-12T06:09:48.789Z,22.45
2019-03-12T06:12:15.527Z,20.57
2019-03-12T06:14:42.239Z,21.35
2019-03-12T06:17:08.843Z,21.80
2019-03-12T06:19:35.541Z,18.15
2019-03-12T06:22:03.075Z,20.80
2019-03-12T06:24:29.849Z,18.67
2019-03-12T06:26:56.586Z,20.82
2019-03-12T06:29:23.328Z,18.32
2019-03-12T06:32:00.670Z,20.30
2019-03-12T06:34:29.303Z,23.98
2019-03-12T06:36:57.878Z,23.12
2019-03-12T06:39:26.358Z,23.27
2019-03-12T06:41:54.871Z,21.90
2019-03-12T06:44:26.290Z,19.15
2019-03-12T06:46:58.040Z,21.02
2019-03-12T06:49:26.628Z,20.68
2019-03-12T06:51:57.977Z,20.88
2019-03-12T06:54:38.867Z,18.10
2019-03-12T06:57:07.321Z,23.65
2019-03-12T06:59:44.812Z,18.52
2019-03-12T07:02:19.538Z,19.20
2019-03-12T07:04:48.025Z,17.65
2019-03-12T07:07:17.208Z,20.82
2019-03-12T07:09:45.908Z,17.12
2019-03-12T07:12:14.826Z,16.45
2019-03-12T07:14:43.826Z,20.48
2019-03-12T07:17:18.411Z,18.32
2019-03-12T07:19:52.835Z,18.87
2019-03-12T07:22:27.255Z,18.75
2019-03-12T07:24:58.427Z,18.50
2019-03-12T07:27:29.809Z,16.60
2019-03-12T07:30:00.998Z,21.85
2019-03-12T07:32:29.462Z,18.97
2019-03-12T07:34:58.046Z,17.98
2019-03-12T07:37:26.634Z,16.42
2019-03-12T07:39:57.870Z,15.98
2019-03-12T07:42:38.442Z,16.27
2019-03-12T07:45:08.769Z,14.80
2019-03-12T07:47:42.034Z,16.45
2019-03-12T07:50:10.846Z,13.38
2019-03-12T07:52:51.758Z,13.38
2019-03-12T07:55:20.166Z,16.77
2019-03-12T07:57:48.633Z,14.38
2019-03-12T08:00:29.334Z,13.75
2019-03-12T08:03:00.985Z,14.90
2019-03-12T08:05:38.436Z,12.93
2019-03-12T08:08:19.304Z,13.85
2019-03-12T08:10:53.677Z,14.78
2019-03-12T08:13:24.780Z,12.85
2019-03-12T08:15:59.213Z,13.03
2019-03-12T08:18:27.815Z,14.35
2019-03-12T08:21:22.188Z,13.45
2019-03-12T08:23:49.616Z,14.00
2019-03-12T08:26:27.499Z,13.38
2019-03-12T08:29:05.172Z,13.58
2019-03-12T08:31:41.104Z,16.32
2019-03-12T08:34:12.668Z,16.77
2019-03-12T08:36:53.478Z,14.58
2019-03-12T08:39:21.940Z,17.07
2019-03-12T08:41:53.520Z,14.85
2019-03-12T08:44:37.537Z,18.80
2019-03-12T08:47:06.836Z,18.52
2019-03-12T08:49:37.890Z,17.23
2019-03-12T08:52:06.439Z,17.80
2019-03-12T08:54:37.663Z,17.87
2019-03-12T08:57:18.225Z,20.20
2019-03-12T08:59:46.722Z,15.88
2019-03-12T09:02:30.685Z,20.95
2019-03-12T09:05:02.007Z,20.23
2019-03-12T09:07:39.566Z,15.83
2019-03-12T09:10:22.171Z,17.27
2019-03-12T09:12:50.728Z,19.90
2019-03-12T09:15:37.175Z,18.65
2019-03-12T09:18:08.481Z,19.85
2019-03-12T09:20:42.988Z,19.87
2019-03-12T09:23:28.020Z,19.40
2019-03-12T09:25:59.267Z,17.48
2019-03-12T09:28:39.876Z,19.35
2019-03-12T09:31:11.124Z,19.70
2019-03-12T09:33:48.830Z,19.73
2019-03-12T09:36:20.068Z,18.85
2019-03-12T09:38:54.648Z,17.92
2019-03-12T09:41:41.518Z,18.30
2019-03-12T09:44:09.959Z,19.23
2019-03-12T09:46:41.293Z,20.70
2019-03-12T09:49:16.329Z,20.12
2019-03-12T09:51:50.805Z,20.52
2019-03-12T09:54:19.374Z,18.65
2019-03-12T09:56:47.875Z,17.80
2019-03-12T09:59:22.325Z,18.23
2019-03-12T10:02:08.771Z,18.60
2019-03-12T10:04:53.978Z,18.82
2019-03-12T10:07:22.485Z,18.42
2019-03-12T10:09:59.876Z,19.55
2019-03-12T10:12:34.168Z,18.85
2019-03-12T10:15:05.648Z,19.82
2019-03-12T10:17:50.941Z,20.85
2019-03-12T10:20:28.478Z,18.20
2019-03-12T10:23:05.745Z,19.57
2019-03-12T10:25:52.561Z,20.80
2019-03-12T10:28:37.810Z,18.77
2019-03-12T10:31:06.455Z,17.40
2019-03-12T10:33:35.917Z,16.40
2019-03-12T10:36:11.025Z,17.70
2019-03-12T10:39:23.362Z,17.57
2019-03-12T10:41:54.676Z,16.95
2019-03-12T10:44:23.117Z,17.05
2019-03-12T10:46:54.668Z,15.32
2019-03-12T10:49:21.345Z,13.58
2019-03-12T10:51:48.019Z,14.70
2019-03-12T10:54:14.647Z,7.78
2019-03-12T10:56:41.420Z,7.95
2019-03-12T10:59:08.118Z,7.22
2019-03-12T11:01:34.797Z,8.63
2019-03-12T11:04:01.476Z,7.58
2019-03-12T11:06:28.126Z,5.95
2019-03-12T11:08:54.979Z,5.80
2019-03-12T11:11:21.696Z,4.33
2019-03-12T11:13:48.512Z,4.20
2019-03-12T11:16:15.459Z,2.92
2019-03-12T11:18:42.290Z,3.80
2019-03-12T11:21:08.929Z,2.52
2019-03-12T11:23:35.675Z,1.67
2019-03-12T11:26:02.417Z,1.82
2019-03-12T11:28:29.149Z,3.27
2019-03-12T11:30:55.999Z,2.42
2019-03-12T11:33:23.754Z,2.12
2019-03-12T11:35:50.388Z,2.47
2019-03-12T11:38:17.027Z,1.95
2019-03-12T11:40:43.788Z,2.42
2019-03-12T11:43:10.453Z,2.33
2019-03-12T11:45:38.263Z,2.92
2019-03-12T11:48:05.357Z,3.37
2019-03-12T11:50:31.972Z,2.50
2019-03-12T11:53:00.108Z,1.57
2019-03-12T11:55:27.312Z,2.75
2019-03-12T11:57:54.311Z,1.80
2019-03-12T12:00:24.076Z,2.20
2019-03-12T12:02:59.988Z,2.95
2019-03-12T12:05:19.569Z,1.92
2019-03-12T12:07:46.345Z,2.40
2019-03-12T12:10:15.101Z,2.47
2019-03-12T12:12:41.924Z,3.37
2019-03-12T12:15:10.823Z,2.25
2019-03-12T12:17:37.555Z,2.35
2019-03-12T12:20:07.679Z,4.22
2019-03-12T12:22:34.514Z,2.83
2019-03-12T12:25:01.254Z,2.02
2019-03-12T12:27:27.992Z,2.58
2019-03-12T12:29:54.738Z,3.08
2019-03-12T12:32:21.477Z,2.60
2019-03-12T12:34:48.317Z,2.65
2019-03-12T12:37:15.056Z,3.92
2019-03-12T12:39:41.803Z,3.50
2019-03-12T12:42:08.532Z,3.47
2019-03-12T12:44:35.372Z,2.08
2019-03-12T12:47:02.114Z,2.52
2019-03-12T12:49:29.066Z,2.65
2019-03-12T12:51:55.909Z,3.10
2019-03-12T12:54:22.750Z,2.77
2019-03-12T12:56:49.478Z,5.92
2019-03-12T12:59:16.126Z,2.83
2019-03-12T13:01:42.969Z,2.30
2019-03-12T13:04:09.609Z,2.25
2019-03-12T13:06:36.341Z,2.05
2019-03-12T13:09:04.643Z,3.67
2019-03-12T13:11:33.205Z,3.12
2019-03-12T13:13:59.934Z,3.15
2019-03-12T13:16:26.777Z,3.58
2019-03-12T13:18:53.422Z,3.20
2019-03-12T13:21:20.160Z,2.65
2019-03-12T13:23:46.900Z,2.77
2019-03-12T13:26:13.635Z,2.37
2019-03-12T13:28:40.482Z,3.08
2019-03-12T13:31:07.313Z,4.15
2019-03-12T13:33:34.054Z,3.00
2019-03-12T13:36:00.811Z,2.47
2019-03-12T13:38:27.764Z,2.10
2019-03-12T13:40:54.591Z,2.90
2019-03-12T13:43:21.320Z,2.10
2019-03-12T13:45:48.085Z,3.20
2019-03-12T13:48:14.909Z,3.00
2019-03-12T13:50:41.640Z,3.12
2019-03-12T13:53:08.449Z,3.58
2019-03-12T13:55:35.229Z,2.10
2019-03-12T13:58:01.966Z,2.00
2019-03-12T14:00:28.705Z,4.08
2019-03-12T14:02:55.549Z,2.98
2019-03-12T14:05:22.277Z,2.55
2019-03-12T14:07:49.027Z,5.45
2019-03-12T14:10:26.025Z,2.72
2019-03-12T14:12:53.864Z,3.25
2019-03-12T14:15:35.253Z,2.87
2019-03-12T14:18:02.017Z,3.15
2019-03-12T14:20:50.979Z,3.02
2019-03-12T14:23:38.885Z,2.37
2019-03-12T14:26:05.520Z,2.90
2019-03-12T14:28:32.190Z,2.65
2019-03-12T14:30:59.023Z,3.55
2019-03-12T14:33:25.630Z,4.08
2019-03-12T14:35:52.573Z,2.35
2019-03-12T14:38:19.433Z,3.47
2019-03-12T14:40:46.183Z,2.70
2019-03-12T14:43:12.849Z,2.25
2019-03-12T14:45:48.383Z,2.45
2019-03-12T14:48:35.748Z,2.62
2019-03-12T14:51:02.655Z,2.65
2019-03-12T14:53:30.527Z,2.72
2019-03-12T14:55:57.254Z,3.12
2019-03-12T14:58:23.979Z,2.27
2019-03-12T15:00:50.607Z,3.12
2019-03-12T15:03:17.294Z,2.95
2019-03-12T15:05:44.093Z,1.95
2019-03-12T15:08:11.220Z,4.30
2019-03-12T15:10:37.968Z,2.70
2019-03-12T15:13:04.811Z,3.62
2019-03-12T15:15:31.656Z,1.80
2019-03-12T15:17:58.382Z,2.08
2019-03-12T15:20:25.128Z,2.55
2019-03-12T15:22:51.867Z,3.02
2019-03-12T15:25:18.709Z,2.90
2019-03-12T15:27:45.448Z,2.67
2019-03-12T15:30:20.354Z,1.95
2019-03-12T15:32:47.140Z,2.20
2019-03-12T15:35:13.875Z,1.57
2019-03-12T15:37:40.608Z,2.30
2019-03-12T15:40:09.791Z,2.27
2019-03-12T15:42:36.631Z,1.82
2019-03-12T15:45:06.260Z,1.70
2019-03-12T15:47:38.392Z,2.42
2019-03-12T15:50:01.770Z,5.20
2019-03-12T15:52:28.515Z,1.52
2019-03-12T15:54:55.147Z,1.47
2019-03-12T15:57:22.923Z,2.52
2019-03-12T15:59:49.531Z,1.65
2019-03-12T16:02:16.382Z,2.70
2019-03-12T16:04:43.021Z,4.17
2019-03-12T16:07:09.708Z,6.28
2019-03-12T16:09:36.506Z,2.95
2019-03-12T16:12:03.249Z,2.65
2019-03-12T16:14:29.978Z,2.72
2019-03-12T16:16:56.828Z,2.52
2019-03-12T16:19:23.567Z,1.82
2019-03-12T16:21:50.307Z,3.90
2019-03-12T16:24:17.044Z,6.60
2019-03-12T16:26:43.776Z,7.33
2019-03-12T16:29:10.726Z,7.60
2019-03-12T16:31:37.437Z,9.45
2019-03-12T16:34:04.135Z,11.03
2019-03-12T16:36:31.062Z,14.90
2019-03-12T16:38:58.807Z,7.75
2019-03-12T16:41:25.484Z,7.45
2019-03-12T16:43:52.287Z,6.67
2019-03-12T16:46:19.030Z,8.63
2019-03-12T16:48:45.667Z,12.25
2019-03-12T16:51:12.410Z,11.78
2019-03-12T16:53:39.141Z,7.25
2019-03-12T16:56:05.879Z,8.50
2019-03-12T16:58:32.625Z,8.80
2019-03-12T17:00:59.456Z,8.33
2019-03-12T17:03:26.106Z,13.55
2019-03-12T17:05:53.213Z,8.40
2019-03-12T17:08:20.147Z,9.45
2019-03-12T17:10:56.851Z,8.40
2019-03-12T17:13:16.276Z,11.88
2019-03-12T17:15:43.725Z,11.97
2019-03-12T17:18:10.887Z,11.03
2019-03-12T17:20:38.101Z,5.78
2019-03-12T17:23:05.074Z,8.95
2019-03-12T17:25:32.281Z,6.25
2019-03-12T17:27:59.036Z,5.75
2019-03-12T17:30:25.768Z,11.45
2019-03-12T17:32:52.501Z,14.18
2019-03-12T17:35:31.638Z,11.68
2019-03-12T17:37:59.293Z,10.50
2019-03-12T17:40:27.260Z,14.38
2019-03-12T17:42:54.006Z,16.07
2019-03-12T17:45:20.741Z,14.75
2019-03-12T17:47:47.476Z,17.73
2019-03-12T17:50:14.429Z,13.90
2019-03-12T17:52:41.160Z,10.90
2019-03-12T17:55:10.571Z,11.10
2019-03-12T17:57:37.412Z,12.50
2019-03-12T18:00:10.602Z,14.80
2019-03-12T18:02:42.482Z,15.72
2019-03-12T18:05:08.239Z,12.95
2019-03-12T18:07:34.946Z,16.00
2019-03-12T18:10:01.871Z,14.05
2019-03-12T18:12:28.497Z,13.98
2019-03-12T18:14:55.182Z,17.15
2019-03-12T18:17:21.912Z,24.95
2019-03-12T18:19:48.674Z,20.37
2019-03-12T18:22:15.434Z,19.50
2019-03-12T18:24:42.425Z,15.38
2019-03-12T18:27:09.126Z,17.92
2019-03-12T18:29:35.912Z,13.58
2019-03-12T18:32:02.631Z,18.45
2019-03-12T18:34:29.285Z,16.30
2019-03-12T18:36:56.002Z,16.35
2019-03-12T18:39:22.714Z,13.95
2019-03-12T18:41:49.476Z,17.42
2019-03-12T18:44:16.462Z,14.30
2019-03-12T18:46:43.386Z,14.95
2019-03-12T18:49:10.019Z,17.42
2019-03-12T18:51:36.706Z,17.52
2019-03-12T18:54:03.425Z,20.68
2019-03-12T18:56:30.196Z,17.75
2019-03-12T18:58:56.897Z,16.40
2019-03-12T19:01:23.655Z,20.30
2019-03-12T19:03:50.253Z,20.50
2019-03-12T19:06:16.899Z,19.75
2019-03-12T19:08:48.179Z,18.48
2019-03-12T19:11:12.149Z,19.42
2019-03-12T19:13:38.762Z,18.90
2019-03-12T19:16:05.447Z,26.00
2019-03-12T19:18:32.054Z,31.30
2019-03-12T19:20:58.689Z,35.63
2019-03-12T19:23:25.391Z,34.63
2019-03-12T19:25:52.097Z,31.80
2019-03-12T19:28:19.008Z,31.30
2019-03-12T19:30:46.096Z,40.15
2019-03-12T19:33:14.545Z,40.38
2019-03-12T19:35:41.377Z,43.85
2019-03-12T19:38:08.059Z,38.92
2019-03-12T19:40:37.775Z,42.95
2019-03-12T19:43:04.526Z,47.10
2019-03-12T19:45:31.338Z,49.15
2019-03-12T19:47:58.067Z,50.25
2019-03-12T19:50:24.873Z,52.45
2019-03-12T19:52:51.647Z,44.98
2019-03-12T19:55:34.029Z,46.58
2019-03-12T19:58:01.811Z,51.88
2019-03-12T20:00:28.821Z,53.55
2019-03-12T20:03:09.602Z,53.20
2019-03-12T20:05:25.429Z,49.48
2019-03-12T20:07:52.268Z,49.65
2019-03-12T20:10:54.661Z,46.30
2019-03-12T20:16:19.669Z,45.65
2019-03-12T20:19:13.340Z,49.20
2019-03-12T20:22:03.128Z,50.23
2019-03-12T20:24:59.111Z,43.58
2019-03-12T20:27:55.386Z,45.30
2019-03-12T20:30:59.335Z,42.27
2019-03-12T20:33:44.558Z,44.03
2019-03-12T20:36:36.103Z,41.95
2019-03-12T20:39:21.258Z,41.90
2019-03-12T20:42:08.377Z,41.98
2019-03-12T20:44:58.044Z,39.88
2019-03-12T20:47:40.771Z,39.78
2019-03-12T20:50:43.140Z,40.75
2019-03-12T20:53:47.360Z,45.23
2019-03-12T20:56:42.055Z,41.98
2019-03-12T20:59:35.580Z,42.05
2019-03-12T21:02:32.154Z,36.55
2019-03-12T21:05:25.123Z,41.35
2019-03-12T21:08:11.927Z,39.05
2019-03-12T21:11:08.256Z,42.95
2019-03-12T21:14:13.186Z,45.83
2019-03-12T21:17:03.382Z,41.28
2019-03-12T21:20:10.767Z,45.63
2019-03-12T21:23:02.498Z,52.15
2019-03-12T21:25:35.785Z,31.65
2019-03-12T21:28:21.262Z,44.08
2019-03-12T21:30:47.904Z,43.23
2019-03-12T21:33:15.706Z,47.38
2019-03-12T21:35:43.731Z,49.13
2019-03-12T21:38:10.474Z,41.45
2019-03-12T21:40:37.220Z,42.00
2019-03-12T21:43:03.951Z,40.73
2019-03-12T21:45:30.596Z,38.28
2019-03-12T21:47:57.438Z,41.20
2019-03-12T21:50:24.538Z,39.42
2019-03-12T21:52:51.319Z,44.73
2019-03-12T21:55:18.148Z,41.30
2019-03-12T21:57:45.070Z,41.75
2019-03-12T22:00:15.020Z,41.33
2019-03-12T22:02:43.603Z,41.15
2019-03-12T22:05:10.443Z,36.10
2019-03-12T22:07:37.047Z,42.58
2019-03-12T22:10:09.254Z,43.35
2019-03-12T22:12:35.985Z,46.25
2019-03-12T22:15:05.114Z,45.43
2019-03-12T22:17:32.338Z,47.03
2019-03-12T22:19:59.181Z,38.58
2019-03-12T22:22:30.115Z,44.88
2019-03-12T22:24:56.853Z,42.65
2019-03-12T22:27:23.589Z,38.17
2019-03-12T22:29:50.331Z,40.08
2019-03-12T22:32:17.075Z,39.73
2019-03-12T22:34:43.919Z,42.20
2019-03-12T22:37:10.555Z,36.73
2019-03-12T22:39:37.390Z,39.10
2019-03-12T22:42:04.141Z,36.03
2019-03-12T22:44:30.876Z,35.55
2019-03-12T22:46:57.616Z,37.28
2019-03-12T22:49:24.457Z,37.30
2019-03-12T22:51:51.292Z,40.90
2019-03-12T22:54:18.042Z,33.28
2019-03-12T22:56:44.881Z,39.42
2019-03-12T22:59:13.362Z,31.27
2019-03-12T23:01:58.738Z,38.28
2019-03-12T23:04:43.696Z,36.15
2019-03-12T23:07:28.970Z,37.73
2019-03-12T23:09:57.652Z,33.20
2019-03-12T23:12:26.347Z,27.48
2019-03-12T23:14:54.002Z,34.73
2019-03-12T23:17:20.944Z,32.67
2019-03-12T23:19:47.795Z,32.53
2019-03-12T23:22:14.524Z,28.98
2019-03-12T23:24:41.470Z,30.20
2019-03-12T23:27:08.214Z,29.15
2019-03-12T23:29:34.957Z,26.07
2019-03-12T23:32:01.689Z,37.23
2019-03-12T23:34:28.630Z,30.90
2019-03-12T23:36:55.379Z,32.98
2019-03-12T23:39:22.117Z,35.05
2019-03-12T23:41:48.850Z,29.18
2019-03-12T23:44:15.792Z,35.65
2019-03-12T23:46:42.541Z,34.10
2019-03-12T23:49:09.285Z,26.57
2019-03-12T23:51:35.906Z,25.77
2019-03-12T23:54:02.762Z,32.53
2019-03-12T23:56:29.461Z,26.12
2019-03-12T23:58:56.126Z,28.92
